Tuesday, July 17, 2018, 12:29 AM CDT
Back to Local

KHUT, Hutchinson Municipal Airport

Location: Hutchinson, KS, United States Lat: 38.067
Local Time: 12:29 AM CDT ( 5:29 GMT) Lon: -97.867
Time Zone: US/Central Elev: 1541 ft

Show me the last for .
Show Decoded

2018-07-16 23:52 METAR KHUT 170452Z AUTO 12003KT 10SM CLR 24/21 A3005 RMK AO2 SLP152 T02440206 =
2018-07-16 22:52 METAR KHUT 170352Z AUTO 09004KT 10SM CLR 25/22 A3005 RMK AO2 SLP152 T02500217 =
2018-07-16 21:52 METAR KHUT 170252Z 13008KT 10SM CLR 27/22 A3004 RMK AO2 SLP148 T02720222 53015 =
2018-07-16 20:52 METAR KHUT 170152Z 09006KT 10SM CLR 28/22 A3003 RMK AO2 SLP144 T02830222 =
2018-07-16 19:52 METAR KHUT 170052Z 10008KT 10SM CLR 31/22 A3001 RMK AO2 SLP138 T03060217 =
2018-07-16 18:52 METAR KHUT 162352Z 10005KT 10SM CLR 32/22 A3000 RMK AO2 SLP133 T03170217 10333
                 20294 56014 =
2018-07-16 17:52 METAR KHUT 162252Z 10004KT 10SM CLR 32/21 A3001 RMK AO2 SLP137 T03220211 =
2018-07-16 16:52 METAR KHUT 162152Z COR 15005KT 10SM CLR 33/22 A3001 RMK AO2 SLP137 T03280217 =
2018-07-16 14:52 METAR KHUT 161952Z VRB03KT 10SM CLR 31/22 A3005 RMK AO2 SLP150 T03110217 =
2018-07-16 13:52 METAR KHUT 161852Z VRB05KT 10SM CLR 31/22 A3006 RMK AO2 SLP157 T03060222 =
2018-07-16 12:52 METAR KHUT 161752Z VRB04KT 10SM CLR 29/21 A3007 RMK AO2 SLP159 T02940211 10294
                 20222 50003 =
2018-07-16 11:52 METAR KHUT 161652Z 12004KT 10SM FEW060 BKN080 BKN100 27/21 A3009 RMK AO2 SLP164
                 T02720206 =
2018-07-16 10:52 METAR KHUT 161552Z 13009KT 10SM BKN090 27/20 A3008 RMK AO2 SLP162 T02720200 =
2018-07-16 09:52 METAR KHUT 161452Z 10008KT 10SM CLR 26/21 A3006 RMK AO2 SLP157 T02560206 50005 =
2018-07-16 08:52 METAR KHUT 161352Z 11006KT 10SM OVC080 23/21 A3007 RMK AO2 LTG DSNT E SLP160
                 T02330211 =
2018-07-16 07:52 METAR KHUT 161252Z 06005KT 10SM BKN085 22/21 A3006 RMK AO2 LTG DSNT NE AND E
                 SLP157 T02220211 =
2018-07-16 07:14 METAR KHUT 161214Z 06007KT 10SM VCTS BKN050 BKN070 23/21 A3005 RMK AO2 LTG DSNT
                 NW-E OCNL LTGIC NE TS NE MOV E T02280211 =
2018-07-16 06:52 METAR KHUT 161152Z 13009KT 10SM BKN050 BKN070 23/22 A3005 RMK AO2 LTG DSNT NW-E
                 SLP151 OCNL LTGIC NE T02280217 10250 20228 53007 =
2018-07-16 05:52 METAR KHUT 161052Z 01010G18KT 10SM FEW065 23/21 A3002 RMK AO2 LTG DSNT ALQDS
                 SLP141 FRQ LTGIC N AND E TS N-E MOV E T02330211 $ =
2018-07-16 05:49 METAR KHUT 161049Z 01007KT 10SM FEW065 23/21 A3002 RMK AO2 LTG DSNT ALQDS FRQ
                 LTGIC N AND E TS N-E MOV E $ =
2018-07-16 05:09 METAR KHUT 161009Z AUTO 36010KT 10SM VCTS SCT065 SCT080 BKN100 24/21 A3003 RMK
                 AO2 LTG DSNT NW-NE T02390206 $ =
2018-07-16 04:52 METAR KHUT 160952Z AUTO 36010KT 10SM BKN070 24/21 A3002 RMK AO2 LTG DSNT NW-NE
                 SLP143 T02390211 $ =
2018-07-16 03:52 METAR KHUT 160852Z AUTO 07007KT 10SM CLR 25/21 A3001 RMK AO2 LTG DSNT NW-NE
                 TSB05E20 SLP135 T02500211 58005 $ =
2018-07-16 03:26 METAR KHUT 160826Z AUTO 06014G18KT 10SM VCTS CLR 25/21 A3002 RMK AO2 LTG DSNT
                 N-E TSB05E20 T02500211 $ =
2018-07-16 03:11 METAR KHUT 160811Z AUTO 06011KT 10SM TS FEW090 FEW110 25/22 A3002 RMK AO2 LTG
                 DSNT N AND NE TSB05 T02500217 $ =
2018-07-16 02:52 METAR KHUT 160752Z AUTO 04006KT 10SM VCTS FEW065 BKN100 OVC120 24/22 A3002 RMK
                 AO2 LTG DSNT NE SLP140 T02440222 $ =
2018-07-16 02:14 METAR KHUT 160714Z AUTO 36006KT 10SM BKN065 BKN090 24/23 A3003 RMK AO2 LTG DSNT
                 N AND NE T02440228 $ =
2018-07-16 01:59 METAR KHUT 160659Z AUTO 35005KT 10SM VCTS FEW060 SCT100 24/23 A3003 RMK AO2 LTG
                 DSNT N AND NE T02390228 $ =
2018-07-16 01:52 METAR KHUT 160652Z AUTO 00000KT 10SM CLR 24/23 A3002 RMK AO2 LTG DSNT N AND NE
                 SLP139 T02390228 $ =
2018-07-16 00:52 METAR KHUT 160552Z AUTO 15003KT 10SM BKN100 25/23 A3003 RMK AO2 SLP141 T02500228
                 10300 20244 403560228 51009 $ =

Support USWX by starting your Amazon purchase here.